Time,TemperatureF,DewpointF,PressureIn,WindDirection,WindDirectionDegrees,WindSpeedMPH,WindSpeedGustMPH,Humidity,HourlyPrecipIn,Conditions,Clouds,dailyrainin,SoftwareType,DateUTC
2013-05-04 00:01:00,52.2,49.9,29.86,ENE,68,7.6,9.2,92,0.00,RA,BKN,0.00,WeatherDisplay:10.37,2013-05-04 05:01:00,
2013-05-04 00:06:00,52.3,50.1,29.87,East,90,8.5,8.5,92,0.00,RA,BKN,0.00,WeatherDisplay:10.37,2013-05-04 05:06:00,
2013-05-04 00:11:00,52.5,50.3,29.88,East,90,11.4,11.4,92,0.00,CLR,BKN,0.00,WeatherDisplay:10.37,2013-05-04 05:11:00,
2013-05-04 00:16:00,53.1,50.8,29.88,East,90,13.9,18.4,92,0.00,CLR,BKN,0.00,WeatherDisplay:10.37,2013-05-04 05:16:00,
2013-05-04 00:21:00,53.4,51.2,29.89,ENE,68,9.2,10.4,92,0.00,CLR,BKN,0.00,WeatherDisplay:10.37,2013-05-04 05:21:00,
2013-05-04 00:26:00,53.1,50.5,29.89,NE,45,11.4,11.4,91,0.00,CLR,BKN,0.00,WeatherDisplay:10.37,2013-05-04 05:26:00,
2013-05-04 00:31:00,52.9,50.3,29.88,East,90,8.1,8.1,91,0.00,CLR,BKN,0.00,WeatherDisplay:10.37,2013-05-04 05:31:00,
2013-05-04 00:36:00,52.9,50.3,29.88,ENE,68,8.5,10.4,91,0.00,CLR,BKN,0.00,WeatherDisplay:10.37,2013-05-04 05:36:00,
2013-05-04 00:41:00,52.9,50.3,29.89,NE,45,9.7,11.5,91,0.00,CLR,BKN,0.00,WeatherDisplay:10.37,2013-05-04 05:41:00,
2013-05-04 00:46:00,52.7,50.1,29.89,East,90,8.5,10.4,91,0.00,CLR,BKN,0.00,WeatherDisplay:10.37,2013-05-04 05:46:00,
2013-05-04 00:51:00,52.7,50.1,29.89,East,90,7.4,8.1,91,0.00,CLR,BKN,0.00,WeatherDisplay:10.37,2013-05-04 05:51:00,
2013-05-04 00:56:00,52.7,50.1,29.89,ENE,68,11.4,11.5,91,0.00,CLR,BKN,0.00,WeatherDisplay:10.37,2013-05-04 05:56:00,
2013-05-04 01:01:00,52.7,50.1,29.89,ESE,112,10.5,10.5,91,0.00,CLR,BKN,0.00,WeatherDisplay:10.37,2013-05-04 06:01:00,
2013-05-04 01:06:00,52.7,50.1,29.89,ENE,68,9.2,10.4,91,0.00,CLR,BKN,0.00,WeatherDisplay:10.37,2013-05-04 06:06:00,
2013-05-04 01:11:00,52.7,50.1,29.89,ENE,68,7.6,8.1,91,0.00,CLR,BKN,0.00,WeatherDisplay:10.37,2013-05-04 06:11:00,
2013-05-04 01:16:00,52.7,50.1,29.88,East,90,8.3,9.2,91,0.00,CLR,BKN,0.00,WeatherDisplay:10.37,2013-05-04 06:16:00,
2013-05-04 01:21:00,52.7,50.1,29.88,East,90,7.6,9.2,91,0.00,CLR,BKN,0.00,WeatherDisplay:10.37,2013-05-04 06:21:00,
2013-05-04 01:26:00,52.7,50.1,29.88,ENE,68,6.7,6.9,91,0.00,CLR,BKN,0.00,WeatherDisplay:10.37,2013-05-04 06:26:00,
2013-05-04 01:31:00,52.7,50.4,29.88,NE,45,6.9,8.1,92,0.00,CLR,BKN,0.00,WeatherDisplay:10.37,2013-05-04 06:31:00,
2013-05-04 01:36:00,52.7,50.4,29.88,East,90,9.2,11.5,92,0.00,CLR,BKN,0.00,WeatherDisplay:10.37,2013-05-04 06:36:00,
2013-05-04 01:41:00,52.5,50.3,29.87,ENE,68,9.9,10.4,92,0.00,CLR,BKN,0.00,WeatherDisplay:10.37,2013-05-04 06:41:00,
2013-05-04 01:46:00,52.5,50.3,29.87,ENE,68,8.3,10.4,92,0.00,CLR,BKN,0.00,WeatherDisplay:10.37,2013-05-04 06:46:00,
2013-05-04 01:51:00,52.5,50.3,29.87,East,90,5.4,8.1,92,0.00,CLR,BKN,0.00,WeatherDisplay:10.37,2013-05-04 06:51:00,
2013-05-04 01:56:00,52.7,50.4,29.87,ENE,68,6.9,8.1,92,0.00,CLR,BKN,0.00,WeatherDisplay:10.37,2013-05-04 06:56:00,
2013-05-04 02:01:00,52.9,50.6,29.87,ENE,68,4.3,5.8,92,0.00,CLR,BKN,0.00,WeatherDisplay:10.37,2013-05-04 07:01:00,
2013-05-04 02:06:00,52.9,50.6,29.87,East,90,6.4,6.4,92,0.00,CLR,BKN,0.00,WeatherDisplay:10.37,2013-05-04 07:06:00,
2013-05-04 02:11:00,52.9,50.6,29.87,ENE,68,6.7,6.7,92,0.00,CLR,BKN,0.00,WeatherDisplay:10.37,2013-05-04 07:11:00,
2013-05-04 02:16:00,52.9,50.6,29.87,ENE,68,7.4,8.1,92,0.00,CLR,BKN,0.00,WeatherDisplay:10.37,2013-05-04 07:16:00,
2013-05-04 02:21:00,53.1,50.8,29.87,NE,45,6.0,6.9,92,0.00,CLR,BKN,0.00,WeatherDisplay:10.37,2013-05-04 07:21:00,
2013-05-04 02:26:00,52.9,50.6,29.87,NE,45,6.0,8.1,92,0.00,CLR,BKN,0.00,WeatherDisplay:10.37,2013-05-04 07:26:00,
2013-05-04 02:31:00,52.9,50.6,29.87,NE,45,7.6,8.1,92,0.00,CLR,BKN,0.00,WeatherDisplay:10.37,2013-05-04 07:31:00,
2013-05-04 02:36:00,52.9,50.9,29.87,NE,45,5.6,6.9,93,0.00,CLR,BKN,0.00,WeatherDisplay:10.37,2013-05-04 07:36:00,
2013-05-04 02:41:00,52.9,50.9,29.87,NE,45,7.1,7.1,93,0.00,CLR,BKN,0.00,WeatherDisplay:10.37,2013-05-04 07:41:00,
2013-05-04 02:46:00,52.9,50.9,29.87,NE,45,5.4,5.8,93,0.00,CLR,BKN,0.00,WeatherDisplay:10.37,2013-05-04 07:46:00,
2013-05-04 02:51:00,53.1,51.1,29.87,NE,45,8.1,9.2,93,0.00,CLR,BKN,0.00,WeatherDisplay:10.37,2013-05-04 07:51:00,
2013-05-04 02:56:00,53.2,51.3,29.87,NE,45,7.6,7.6,93,0.00,CLR,BKN,0.00,WeatherDisplay:10.37,2013-05-04 07:56:00,
2013-05-04 03:01:00,53.2,51.3,29.87,ENE,68,4.0,8.1,93,0.00,CLR,BKN,0.00,WeatherDisplay:10.37,2013-05-04 08:01:00,
2013-05-04 03:06:00,53.2,51.0,29.87,ENE,68,7.6,8.1,92,0.00,CLR,BKN,0.00,WeatherDisplay:10.37,2013-05-04 08:06:00,
2013-05-04 03:11:00,53.2,51.3,29.88,ENE,68,9.0,9.2,93,0.00,CLR,BKN,0.00,WeatherDisplay:10.37,2013-05-04 08:11:00,
2013-05-04 03:16:00,53.2,51.3,29.87,NE,45,9.9,9.9,93,0.00,CLR,BKN,0.00,WeatherDisplay:10.37,2013-05-04 08:16:00,
2013-05-04 03:21:00,53.2,51.3,29.87,ENE,68,10.0,10.4,93,0.00,CLR,BKN,0.00,WeatherDisplay:10.37,2013-05-04 08:21:00,
2013-05-04 03:26:00,53.2,51.3,29.87,NE,45,9.2,9.2,93,0.00,CLR,BKN,0.00,WeatherDisplay:10.37,2013-05-04 08:26:00,
2013-05-04 03:31:00,53.2,51.3,29.87,NE,45,9.9,10.4,93,0.00,CLR,BKN,0.00,WeatherDisplay:10.37,2013-05-04 08:31:00,
2013-05-04 03:36:00,53.2,51.3,29.87,ENE,68,9.4,10.4,93,0.00,CLR,BKN,0.00,WeatherDisplay:10.37,2013-05-04 08:36:00,
2013-05-04 03:41:00,53.4,51.2,29.87,ENE,68,6.4,8.1,92,0.00,CLR,BKN,0.00,WeatherDisplay:10.37,2013-05-04 08:41:00,
2013-05-04 03:46:00,53.4,51.2,29.87,ENE,68,9.7,10.4,92,0.00,CLR,BKN,0.00,WeatherDisplay:10.37,2013-05-04 08:46:00,
2013-05-04 03:51:00,53.2,51.0,29.87,NE,45,8.7,9.2,92,0.00,CLR,BKN,0.00,WeatherDisplay:10.37,2013-05-04 08:51:00,
2013-05-04 03:56:00,53.2,51.3,29.87,NE,45,7.6,8.1,93,0.00,CLR,BKN,0.00,WeatherDisplay:10.37,2013-05-04 08:56:00,
2013-05-04 04:01:00,53.2,51.3,29.87,NE,45,7.1,7.1,93,0.01,RA,BKN,0.01,WeatherDisplay:10.37,2013-05-04 09:01:00,
2013-05-04 04:06:00,53.2,51.3,29.87,NE,45,5.4,5.8,93,0.01,RA,BKN,0.01,WeatherDisplay:10.37,2013-05-04 09:06:00,
2013-05-04 04:11:00,53.2,51.3,29.87,NE,45,4.3,5.8,93,0.01,CLR,BKN,0.01,WeatherDisplay:10.37,2013-05-04 09:11:00,
2013-05-04 04:16:00,53.2,51.3,29.87,ENE,68,6.4,6.9,93,0.01,CLR,BKN,0.01,WeatherDisplay:10.37,2013-05-04 09:16:00,
2013-05-04 04:21:00,53.1,51.1,29.87,NE,45,5.4,5.8,93,0.01,CLR,BKN,0.01,WeatherDisplay:10.37,2013-05-04 09:21:00,
2013-05-04 04:26:00,52.9,50.9,29.87,ENE,68,7.4,8.1,93,0.01,CLR,BKN,0.01,WeatherDisplay:10.37,2013-05-04 09:26:00,
2013-05-04 04:31:00,52.9,50.9,29.87,NE,45,9.9,10.4,93,0.01,CLR,BKN,0.01,WeatherDisplay:10.37,2013-05-04 09:31:00,
2013-05-04 04:36:00,52.7,50.4,29.87,NE,45,9.0,10.4,92,0.01,CLR,BKN,0.01,WeatherDisplay:10.37,2013-05-04 09:36:00,
2013-05-04 04:41:00,52.7,50.4,29.87,ENE,68,7.1,8.1,92,0.01,CLR,BKN,0.01,WeatherDisplay:10.37,2013-05-04 09:41:00,
2013-05-04 04:46:00,52.7,50.4,29.87,ENE,68,7.8,7.8,92,0.01,CLR,BKN,0.01,WeatherDisplay:10.37,2013-05-04 09:46:00,
2013-05-04 04:51:00,52.7,50.4,29.87,NNE,22,7.4,8.1,92,0.01,CLR,BKN,0.01,WeatherDisplay:10.37,2013-05-04 09:51:00,
2013-05-04 04:56:00,52.5,50.3,29.87,NE,45,9.2,10.4,92,0.01,CLR,BKN,0.01,WeatherDisplay:10.37,2013-05-04 09:56:00,
2013-05-04 05:01:00,52.7,50.4,29.87,NE,45,8.3,9.2,92,0.00,CLR,BKN,0.01,WeatherDisplay:10.37,2013-05-04 10:01:00,
2013-05-04 05:06:00,52.7,50.4,29.88,NE,45,9.9,10.4,92,0.00,CLR,BKN,0.01,WeatherDisplay:10.37,2013-05-04 10:06:00,
2013-05-04 05:11:00,52.7,50.4,29.87,NE,45,8.7,10.4,92,0.00,CLR,BKN,0.01,WeatherDisplay:10.37,2013-05-04 10:11:00,
2013-05-04 05:16:00,52.7,50.4,29.87,NE,45,7.8,9.2,92,0.00,CLR,BKN,0.01,WeatherDisplay:10.37,2013-05-04 10:16:00,
2013-05-04 05:21:00,52.9,50.9,29.87,NE,45,9.4,11.5,93,0.00,CLR,BKN,0.01,WeatherDisplay:10.37,2013-05-04 10:21:00,
2013-05-04 05:26:00,52.9,50.9,29.87,NE,45,11.8,11.8,93,0.00,CLR,BKN,0.01,WeatherDisplay:10.37,2013-05-04 10:26:00,
2013-05-04 05:31:00,52.9,50.9,29.87,NNE,22,10.0,10.4,93,0.00,CLR,BKN,0.01,WeatherDisplay:10.37,2013-05-04 10:31:00,
2013-05-04 05:36:00,52.9,50.9,29.87,ENE,68,11.2,12.7,93,0.00,CLR,BKN,0.01,WeatherDisplay:10.37,2013-05-04 10:36:00,
2013-05-04 05:41:00,52.9,50.9,29.87,NE,45,9.9,10.4,93,0.00,CLR,BKN,0.01,WeatherDisplay:10.37,2013-05-04 10:41:00,
2013-05-04 05:46:00,52.9,50.9,29.87,ENE,68,8.5,11.5,93,0.00,CLR,BKN,0.01,WeatherDisplay:10.37,2013-05-04 10:46:00,
2013-05-04 05:51:00,53.1,51.1,29.87,ENE,68,9.7,10.4,93,0.00,CLR,BKN,0.01,WeatherDisplay:10.37,2013-05-04 10:51:00,
2013-05-04 05:56:00,53.1,51.1,29.87,NE,45,11.4,12.7,93,0.00,CLR,BKN,0.01,WeatherDisplay:10.37,2013-05-04 10:56:00,
2013-05-04 06:01:00,53.1,51.1,29.87,ENE,68,12.8,13.8,93,0.00,CLR,BKN,0.01,WeatherDisplay:10.37,2013-05-04 11:01:00,
2013-05-04 06:06:00,53.1,50.8,29.87,NE,45,12.1,12.1,92,0.00,CLR,BKN,0.01,WeatherDisplay:10.37,2013-05-04 11:06:00,
2013-05-04 06:11:00,53.1,51.1,29.87,NE,45,12.5,12.7,93,0.00,CLR,BKN,0.01,WeatherDisplay:10.37,2013-05-04 11:11:00,
2013-05-04 06:16:00,53.2,51.3,29.87,NE,45,11.8,13.8,93,0.00,CLR,BKN,0.01,WeatherDisplay:10.37,2013-05-04 11:16:00,
2013-05-04 06:21:00,53.2,51.0,29.87,ENE,68,12.1,12.1,92,0.00,CLR,BKN,0.01,WeatherDisplay:10.37,2013-05-04 11:21:00,
2013-05-04 06:26:00,53.4,51.2,29.87,ENE,68,12.5,12.5,92,0.00,CLR,BKN,0.01,WeatherDisplay:10.37,2013-05-04 11:26:00,
2013-05-04 06:31:00,53.4,51.4,29.88,East,90,9.7,10.4,93,0.00,CLR,BKN,0.01,WeatherDisplay:10.37,2013-05-04 11:31:00,
2013-05-04 06:36:00,53.6,51.6,29.88,NE,45,9.9,10.4,93,0.00,CLR,BKN,0.01,WeatherDisplay:10.37,2013-05-04 11:36:00,
2013-05-04 06:41:00,53.8,51.5,29.88,NE,45,12.1,12.7,92,0.00,CLR,BKN,0.01,WeatherDisplay:10.37,2013-05-04 11:41:00,
2013-05-04 06:46:00,54.0,51.7,29.89,ENE,68,10.2,12.7,92,0.00,CLR,BKN,0.01,WeatherDisplay:10.37,2013-05-04 11:46:00,
2013-05-04 06:51:00,54.1,51.9,29.88,ENE,68,11.4,13.8,92,0.00,CLR,BKN,0.01,WeatherDisplay:10.37,2013-05-04 11:51:00,
2013-05-04 06:57:00,54.3,52.0,29.89,NE,45,12.8,13.8,92,0.00,CLR,BKN,0.01,WeatherDisplay:10.37,2013-05-04 11:57:00,
2013-05-04 07:02:00,54.7,52.1,29.89,ENE,68,13.5,13.5,91,0.00,CLR,BKN,0.01,WeatherDisplay:10.37,2013-05-04 12:02:00,
2013-05-04 07:08:00,55.0,51.9,29.89,ENE,68,12.1,16.1,89,0.00,CLR,BKN,0.01,WeatherDisplay:10.37,2013-05-04 12:08:00,
2013-05-04 07:13:00,55.4,51.9,29.89,ENE,68,10.5,16.1,88,0.00,CLR,BKN,0.01,WeatherDisplay:10.37,2013-05-04 12:13:00,
2013-05-04 07:19:00,55.8,51.6,29.89,ENE,68,14.7,18.4,86,0.00,CLR,BKN,0.01,WeatherDisplay:10.37,2013-05-04 12:19:00,
2013-05-04 07:24:00,56.5,52.3,29.89,NE,45,12.5,13.8,86,0.00,CLR,BKN,0.01,WeatherDisplay:10.37,2013-05-04 12:24:00,
2013-05-04 07:30:00,56.7,52.2,29.89,ENE,60,14.0,0.0,85,0.00,CLR,BKN,0.01,WeatherDisplay:10.37,2013-05-04 12:30:00,
2013-05-04 07:35:00,56.8,52.1,29.89,ENE,63,14.0,0.0,84,0.00,CLR,BKN,0.01,WeatherDisplay:10.37,2013-05-04 12:35:00,
2013-05-04 07:40:00,57.0,52.2,29.89,East,90,17.3,18.4,84,0.00,CLR,BKN,0.01,WeatherDisplay:10.37,2013-05-04 12:40:00,
2013-05-04 07:45:00,57.0,51.9,29.89,ENE,68,15.0,15.0,83,0.00,CLR,BKN,0.01,WeatherDisplay:10.37,2013-05-04 12:45:00,
2013-05-04 07:50:00,57.0,51.9,29.89,East,90,13.5,13.8,83,0.00,CLR,BKN,0.01,WeatherDisplay:10.37,2013-05-04 12:50:00,
2013-05-04 07:55:00,57.2,52.1,29.89,East,90,11.2,13.8,83,0.00,CLR,BKN,0.01,WeatherDisplay:10.37,2013-05-04 12:55:00,
2013-05-04 08:00:00,57.2,52.1,29.89,ENE,68,14.7,16.1,83,0.00,CLR,BKN,0.01,WeatherDisplay:10.37,2013-05-04 13:00:00,
2013-05-04 08:03:00,57.2,52.1,29.90,ENE,68,12.3,13.8,83,0.00,CLR,BKN,0.01,WeatherDisplay:10.37,2013-05-04 13:03:00,
2013-05-04 08:08:00,57.6,52.4,29.89,ENE,68,14.7,15.0,83,0.00,CLR,BKN,0.01,WeatherDisplay:10.37,2013-05-04 13:08:00,
2013-05-04 08:13:00,57.7,52.3,29.90,ENE,68,10.9,12.7,82,0.00,CLR,BKN,0.01,WeatherDisplay:10.37,2013-05-04 13:13:00,
2013-05-04 08:18:00,57.9,52.8,29.90,East,90,10.5,13.8,83,0.00,CLR,BKN,0.01,WeatherDisplay:10.37,2013-05-04 13:18:00,
2013-05-04 08:23:00,58.3,52.8,29.90,East,90,12.5,12.7,82,0.00,CLR,BKN,0.01,WeatherDisplay:10.37,2013-05-04 13:23:00,
2013-05-04 08:28:00,58.8,53.3,29.90,ENE,68,10.7,11.5,82,0.00,CLR,BKN,0.01,WeatherDisplay:10.37,2013-05-04 13:28:00,
2013-05-04 08:33:00,59.4,53.5,29.90,East,90,14.3,14.3,81,0.00,CLR,BKN,0.01,WeatherDisplay:10.37,2013-05-04 13:33:00,
2013-05-04 08:38:00,59.7,53.5,29.90,East,90,10.5,11.5,80,0.00,CLR,BKN,0.01,WeatherDisplay:10.37,2013-05-04 13:38:00,
2013-05-04 08:43:00,60.1,53.5,29.90,ESE,112,9.4,10.4,79,0.00,CLR,BKN,0.01,WeatherDisplay:10.37,2013-05-04 13:43:00,
2013-05-04 08:48:00,60.3,53.7,29.90,East,90,10.7,10.7,79,0.00,CLR,BKN,0.01,WeatherDisplay:10.37,2013-05-04 13:48:00,
2013-05-04 08:53:00,60.4,53.5,29.91,ESE,112,10.2,11.5,78,0.00,CLR,BKN,0.01,WeatherDisplay:10.37,2013-05-04 13:53:00,
2013-05-04 08:58:00,60.6,53.4,29.91,ENE,68,9.2,10.4,77,0.00,CLR,BKN,0.01,WeatherDisplay:10.37,2013-05-04 13:58:00,
2013-05-04 09:03:00,60.8,53.5,29.91,East,90,6.9,9.2,77,0.00,CLR,BKN,0.01,WeatherDisplay:10.37,2013-05-04 14:03:00,
2013-05-04 09:08:00,61.2,53.5,29.91,ESE,112,9.0,9.2,76,0.00,CLR,BKN,0.01,WeatherDisplay:10.37,2013-05-04 14:08:00,
2013-05-04 09:13:00,61.5,53.9,29.91,ENE,68,8.7,9.2,76,0.00,CLR,BKN,0.01,WeatherDisplay:10.37,2013-05-04 14:13:00,
2013-05-04 09:18:00,62.1,54.0,29.91,East,90,10.9,10.9,75,0.00,CLR,BKN,0.01,WeatherDisplay:10.37,2013-05-04 14:18:00,
2013-05-04 09:23:00,62.4,54.8,29.91,ENE,68,9.9,10.4,76,0.00,CLR,BKN,0.01,WeatherDisplay:10.37,2013-05-04 14:23:00,
2013-05-04 09:28:00,63.0,55.3,29.91,East,90,8.5,12.7,76,0.00,CLR,BKN,0.01,WeatherDisplay:10.37,2013-05-04 14:28:00,
2013-05-04 09:33:00,63.7,56.0,29.91,East,90,6.9,9.2,76,0.00,CLR,BKN,0.01,WeatherDisplay:10.37,2013-05-04 14:33:00,
2013-05-04 09:38:00,64.0,55.6,29.91,East,90,10.9,10.9,74,0.00,CLR,BKN,0.01,WeatherDisplay:10.37,2013-05-04 14:38:00,
2013-05-04 09:43:00,64.6,55.3,29.91,ESE,112,7.4,11.5,72,0.00,CLR,BKN,0.01,WeatherDisplay:10.37,2013-05-04 14:43:00,
2013-05-04 09:48:00,65.1,55.1,29.91,ENE,68,11.6,15.0,70,0.00,CLR,BKN,0.01,WeatherDisplay:10.37,2013-05-04 14:48:00,
2013-05-04 09:53:00,66.0,54.7,29.92,East,90,11.4,13.8,67,0.00,CLR,BKN,0.01,WeatherDisplay:10.37,2013-05-04 14:53:00,
2013-05-04 09:58:00,66.6,55.7,29.92,ENE,68,12.1,13.8,68,0.00,CLR,BKN,0.01,WeatherDisplay:10.37,2013-05-04 14:58:00,
2013-05-04 10:03:00,66.9,54.8,29.92,ENE,68,10.5,13.8,65,0.00,CLR,BKN,0.01,WeatherDisplay:10.37,2013-05-04 15:03:00,
2013-05-04 10:08:00,67.5,55.7,29.92,ESE,112,11.6,11.6,66,0.00,CLR,BKN,0.01,WeatherDisplay:10.37,2013-05-04 15:08:00,
2013-05-04 10:13:00,67.6,55.0,29.92,East,90,11.4,15.0,64,0.00,CLR,BKN,0.01,WeatherDisplay:10.37,2013-05-04 15:13:00,
2013-05-04 10:18:00,67.6,54.2,29.92,ESE,112,7.8,11.5,62,0.00,CLR,BKN,0.01,WeatherDisplay:10.37,2013-05-04 15:18:00,
2013-05-04 10:23:00,67.6,54.2,29.92,SE,135,14.3,16.1,62,0.00,CLR,BKN,0.01,WeatherDisplay:10.37,2013-05-04 15:23:00,
2013-05-04 10:28:00,68.2,54.7,29.92,ESE,112,12.8,16.1,62,0.00,CLR,BKN,0.01,WeatherDisplay:10.37,2013-05-04 15:28:00,
2013-05-04 10:33:00,68.4,53.9,29.92,ESE,112,18.5,18.5,60,0.00,CLR,BKN,0.01,WeatherDisplay:10.37,2013-05-04 15:33:00,
2013-05-04 10:38:00,68.0,54.0,29.93,ESE,112,14.3,16.1,61,0.00,CLR,BKN,0.01,WeatherDisplay:10.37,2013-05-04 15:38:00,
2013-05-04 10:43:00,67.8,53.0,29.93,ESE,112,17.5,18.4,59,0.00,CLR,BKN,0.01,WeatherDisplay:10.37,2013-05-04 15:43:00,
2013-05-04 10:48:00,67.6,53.7,29.93,SE,135,13.5,17.3,61,0.00,CLR,BKN,0.01,WeatherDisplay:10.37,2013-05-04 15:48:00,
2013-05-04 10:53:00,67.5,53.5,29.93,ESE,112,12.8,16.1,61,0.00,CLR,BKN,0.01,WeatherDisplay:10.37,2013-05-04 15:53:00,
2013-05-04 10:58:00,67.5,54.4,29.93,SE,135,12.1,13.8,63,0.00,CLR,BKN,0.01,WeatherDisplay:10.37,2013-05-04 15:58:00,
2013-05-04 11:03:00,68.2,55.1,29.92,East,90,12.5,13.8,63,0.00,CLR,BKN,0.01,WeatherDisplay:10.37,2013-05-04 16:03:00,
2013-05-04 11:08:00,68.9,54.4,29.92,ESE,112,9.0,11.5,60,0.00,CLR,BKN,0.01,WeatherDisplay:10.37,2013-05-04 16:08:00,
2013-05-04 11:13:00,69.1,55.1,29.92,SE,135,11.4,11.5,61,0.00,CLR,BKN,0.01,WeatherDisplay:10.37,2013-05-04 16:13:00,
2013-05-04 11:18:00,69.6,55.6,29.92,ESE,112,6.9,8.1,61,0.00,CLR,BKN,0.01,WeatherDisplay:10.37,2013-05-04 16:18:00,
2013-05-04 11:23:00,70.2,55.6,29.92,East,90,12.1,12.1,60,0.00,CLR,BKN,0.01,WeatherDisplay:10.37,2013-05-04 16:23:00,
2013-05-04 11:28:00,70.2,55.2,29.92,East,90,10.5,10.5,59,0.00,CLR,BKN,0.01,WeatherDisplay:10.37,2013-05-04 16:28:00,
2013-05-04 11:33:00,70.5,56.0,29.92,ESE,112,10.0,10.0,60,0.00,CLR,BKN,0.01,WeatherDisplay:10.37,2013-05-04 16:33:00,
2013-05-04 11:38:00,70.7,56.1,29.92,SE,135,6.2,6.9,60,0.00,CLR,BKN,0.01,WeatherDisplay:10.37,2013-05-04 16:38:00,
2013-05-04 11:43:00,71.1,56.9,29.92,East,90,7.8,8.1,61,0.00,CLR,BKN,0.01,WeatherDisplay:10.37,2013-05-04 16:43:00,
2013-05-04 11:48:00,71.2,56.2,29.91,ESE,112,6.4,9.2,59,0.00,CLR,BKN,0.01,WeatherDisplay:10.37,2013-05-04 16:48:00,
2013-05-04 11:53:00,71.4,56.3,29.91,ESE,112,6.0,6.0,59,0.00,CLR,BKN,0.01,WeatherDisplay:10.37,2013-05-04 16:53:00,
2013-05-04 11:58:00,70.9,54.9,29.91,ENE,68,6.9,11.5,57,0.00,CLR,BKN,0.01,WeatherDisplay:10.37,2013-05-04 16:58:00,
2013-05-04 12:03:00,70.7,55.7,29.91,ESE,112,5.9,8.1,59,0.00,CLR,BKN,0.01,WeatherDisplay:10.37,2013-05-04 17:03:00,
2013-05-04 12:08:00,70.9,55.8,29.91,ESE,112,4.0,10.4,59,0.00,CLR,BKN,0.01,WeatherDisplay:10.37,2013-05-04 17:08:00,
2013-05-04 12:13:00,71.2,56.2,29.91,East,90,8.3,10.4,59,0.00,CLR,BKN,0.01,WeatherDisplay:10.37,2013-05-04 17:13:00,
2013-05-04 12:18:00,71.2,56.6,29.90,ESE,112,4.0,5.8,60,0.00,CLR,BKN,0.01,WeatherDisplay:10.37,2013-05-04 17:18:00,
2013-05-04 12:23:00,71.2,56.2,29.91,East,90,7.6,9.2,59,0.00,CLR,BKN,0.01,WeatherDisplay:10.37,2013-05-04 17:23:00,
2013-05-04 12:28:00,70.9,54.9,29.91,East,90,5.2,8.1,57,0.00,CLR,BKN,0.01,WeatherDisplay:10.37,2013-05-04 17:28:00,
2013-05-04 12:33:00,70.0,55.0,29.90,East,90,7.8,9.2,59,0.00,CLR,BKN,0.01,WeatherDisplay:10.37,2013-05-04 17:33:00,
2013-05-04 12:38:00,70.2,54.7,29.90,ENE,68,10.2,11.5,58,0.00,CLR,BKN,0.01,WeatherDisplay:10.37,2013-05-04 17:38:00,
2013-05-04 12:43:00,70.2,55.2,29.90,ENE,68,9.2,11.5,59,0.00,CLR,BKN,0.01,WeatherDisplay:10.37,2013-05-04 17:43:00,
2013-05-04 12:48:00,70.3,55.8,29.90,East,90,8.5,11.5,60,0.00,CLR,BKN,0.01,WeatherDisplay:10.37,2013-05-04 17:48:00,
2013-05-04 12:53:00,70.5,55.5,29.90,NE,45,12.8,12.8,59,0.00,CLR,BKN,0.01,WeatherDisplay:10.37,2013-05-04 17:53:00,
2013-05-04 12:58:00,70.0,54.5,29.90,NE,45,9.2,11.5,58,0.00,CLR,BKN,0.01,WeatherDisplay:10.37,2013-05-04 17:58:00,
2013-05-04 13:03:00,70.2,55.6,29.90,ENE,68,8.5,10.4,60,0.00,CLR,BKN,0.01,WeatherDisplay:10.37,2013-05-04 18:03:00,
2013-05-04 13:08:00,70.9,57.2,29.90,ESE,112,8.1,9.2,62,0.00,CLR,BKN,0.01,WeatherDisplay:10.37,2013-05-04 18:08:00,
2013-05-04 13:13:00,71.8,56.2,29.90,NE,45,6.0,8.1,58,0.00,CLR,BKN,0.01,WeatherDisplay:10.37,2013-05-04 18:13:00,
2013-05-04 13:18:00,71.4,56.3,29.90,East,90,11.4,11.4,59,0.00,CLR,BKN,0.01,WeatherDisplay:10.37,2013-05-04 18:18:00,
2013-05-04 13:23:00,71.8,56.7,29.89,NE,45,6.4,10.4,59,0.00,CLR,BKN,0.01,WeatherDisplay:10.37,2013-05-04 18:23:00,
2013-05-04 13:28:00,72.3,56.2,29.89,East,90,9.2,10.4,57,0.00,CLR,BKN,0.01,WeatherDisplay:10.37,2013-05-04 18:28:00,
2013-05-04 13:33:00,72.3,56.7,29.89,ESE,112,2.0,6.9,58,0.00,CLR,BKN,0.01,WeatherDisplay:10.37,2013-05-04 18:33:00,
2013-05-04 13:38:00,72.9,57.7,29.89,ENE,68,12.1,13.8,59,0.00,CLR,BKN,0.01,WeatherDisplay:10.37,2013-05-04 18:38:00,
2013-05-04 13:43:00,73.0,57.4,29.89,East,90,11.4,13.8,58,0.00,CLR,BKN,0.01,WeatherDisplay:10.37,2013-05-04 18:43:00,
2013-05-04 13:48:00,73.4,56.7,29.89,East,90,15.6,16.1,56,0.00,CLR,BKN,0.01,WeatherDisplay:10.37,2013-05-04 18:48:00,
2013-05-04 13:53:00,72.9,56.7,29.89,East,90,12.3,15.0,57,0.00,CLR,BKN,0.01,WeatherDisplay:10.37,2013-05-04 18:53:00,
2013-05-04 13:58:00,72.9,56.7,29.89,ESE,112,12.1,12.1,57,0.00,CLR,BKN,0.01,WeatherDisplay:10.37,2013-05-04 18:58:00,
2013-05-04 14:03:00,72.9,56.2,29.88,NE,45,11.4,13.8,56,0.00,CLR,BKN,0.01,WeatherDisplay:10.37,2013-05-04 19:03:00,
2013-05-04 14:08:00,72.5,55.4,29.88,ENE,68,15.6,18.4,55,0.00,CLR,BKN,0.01,WeatherDisplay:10.37,2013-05-04 19:08:00,
2013-05-04 14:13:00,72.5,56.9,29.88,East,90,10.2,15.0,58,0.00,CLR,BKN,0.01,WeatherDisplay:10.37,2013-05-04 19:13:00,
2013-05-04 14:18:00,73.0,56.9,29.89,ESE,112,13.0,15.0,57,0.00,CLR,BKN,0.01,WeatherDisplay:10.37,2013-05-04 19:18:00,
2013-05-04 14:23:00,72.7,56.6,29.88,ENE,68,12.3,12.7,57,0.00,CLR,BKN,0.01,WeatherDisplay:10.37,2013-05-04 19:23:00,
2013-05-04 14:28:00,72.3,55.7,29.88,East,90,9.9,16.1,56,0.00,CLR,BKN,0.01,WeatherDisplay:10.37,2013-05-04 19:28:00,
2013-05-04 14:33:00,72.0,54.9,29.88,ENE,68,15.0,15.0,55,0.00,CLR,BKN,0.01,WeatherDisplay:10.37,2013-05-04 19:33:00,
2013-05-04 14:38:00,72.0,55.4,29.88,ENE,68,13.9,16.1,56,0.00,CLR,BKN,0.01,WeatherDisplay:10.37,2013-05-04 19:38:00,
2013-05-04 14:43:00,72.1,55.6,29.88,East,90,17.0,17.0,56,0.00,CLR,BKN,0.01,WeatherDisplay:10.37,2013-05-04 19:43:00,
2013-05-04 14:48:00,72.0,55.4,29.88,East,90,11.2,12.7,56,0.00,CLR,BKN,0.01,WeatherDisplay:10.37,2013-05-04 19:48:00,
2013-05-04 14:53:00,71.6,54.1,29.88,East,90,12.8,13.8,54,0.00,CLR,BKN,0.01,WeatherDisplay:10.37,2013-05-04 19:53:00,
2013-05-04 14:58:00,70.9,54.4,29.88,ENE,68,10.2,11.5,56,0.00,CLR,BKN,0.01,WeatherDisplay:10.37,2013-05-04 19:58:00,
2013-05-04 15:03:00,70.7,54.7,29.88,ENE,68,12.3,13.8,57,0.00,CLR,BKN,0.01,WeatherDisplay:10.37,2013-05-04 20:03:00,
2013-05-04 15:08:00,70.7,55.2,29.88,East,90,8.7,11.5,58,0.00,CLR,BKN,0.01,WeatherDisplay:10.37,2013-05-04 20:08:00,
2013-05-04 15:13:00,71.1,55.1,29.88,East,90,10.0,10.4,57,0.00,CLR,BKN,0.01,WeatherDisplay:10.37,2013-05-04 20:13:00,
2013-05-04 15:18:00,71.2,55.2,29.88,ESE,112,13.7,13.8,57,0.00,CLR,BKN,0.01,WeatherDisplay:10.37,2013-05-04 20:18:00,
2013-05-04 15:23:00,71.2,55.2,29.88,ENE,68,8.7,10.4,57,0.00,CLR,BKN,0.01,WeatherDisplay:10.37,2013-05-04 20:23:00,
2013-05-04 15:28:00,71.2,54.7,29.88,ESE,112,10.5,11.5,56,0.00,CLR,BKN,0.01,WeatherDisplay:10.37,2013-05-04 20:28:00,
2013-05-04 15:33:00,71.1,54.1,29.88,East,90,17.3,17.3,55,0.00,CLR,BKN,0.01,WeatherDisplay:10.37,2013-05-04 20:33:00,
2013-05-04 15:38:00,70.9,54.4,29.88,East,90,10.9,13.8,56,0.00,CLR,BKN,0.01,WeatherDisplay:10.37,2013-05-04 20:38:00,
2013-05-04 15:43:00,70.5,54.5,29.88,ENE,68,13.0,15.0,57,0.00,CLR,BKN,0.01,WeatherDisplay:10.37,2013-05-04 20:43:00,
2013-05-04 15:48:00,70.3,53.9,29.88,East,90,8.3,9.2,56,0.00,CLR,BKN,0.01,WeatherDisplay:10.37,2013-05-04 20:48:00,
2013-05-04 15:53:00,70.2,53.7,29.88,East,90,11.8,15.0,56,0.00,CLR,BKN,0.01,WeatherDisplay:10.37,2013-05-04 20:53:00,
2013-05-04 15:58:00,70.2,54.2,29.88,East,90,8.1,9.2,57,0.00,CLR,BKN,0.01,WeatherDisplay:10.37,2013-05-04 20:58:00,
2013-05-04 16:03:00,70.0,54.0,29.88,East,90,10.2,10.2,57,0.00,CLR,BKN,0.01,WeatherDisplay:10.37,2013-05-04 21:03:00,
2013-05-04 16:08:00,69.8,53.9,29.88,ENE,68,6.7,8.1,57,0.00,CLR,BKN,0.01,WeatherDisplay:10.37,2013-05-04 21:08:00,
2013-05-04 16:13:00,69.6,54.2,29.89,SSW,202,12.3,12.3,58,0.00,CLR,BKN,0.01,WeatherDisplay:10.37,2013-05-04 21:13:00,
2013-05-04 16:18:00,68.5,56.3,29.89,SW,225,9.9,11.5,65,0.00,CLR,BKN,0.01,WeatherDisplay:10.37,2013-05-04 21:18:00,
2013-05-04 16:23:00,67.1,56.6,29.89,SW,225,9.4,11.5,69,0.00,CLR,BKN,0.01,WeatherDisplay:10.37,2013-05-04 21:23:00,
2013-05-04 16:28:00,66.6,56.9,29.89,SSW,202,10.5,10.5,71,0.00,CLR,BKN,0.01,WeatherDisplay:10.37,2013-05-04 21:28:00,
2013-05-04 16:33:00,66.2,56.5,29.89,SSW,202,6.9,9.2,71,0.00,CLR,BKN,0.01,WeatherDisplay:10.37,2013-05-04 21:33:00,
2013-05-04 16:38:00,66.0,57.1,29.89,South,180,6.7,8.1,73,0.00,CLR,BKN,0.01,WeatherDisplay:10.37,2013-05-04 21:38:00,
2013-05-04 16:43:00,65.8,57.3,29.90,SSW,202,6.7,10.4,74,0.00,CLR,BKN,0.01,WeatherDisplay:10.37,2013-05-04 21:43:00,
2013-05-04 16:48:00,65.8,57.3,29.90,SW,225,7.4,7.4,74,0.00,CLR,BKN,0.01,WeatherDisplay:10.37,2013-05-04 21:48:00,
2013-05-04 16:53:00,65.8,57.7,29.90,SW,225,9.2,9.2,75,0.00,CLR,BKN,0.01,WeatherDisplay:10.37,2013-05-04 21:53:00,
2013-05-04 16:58:00,65.7,57.5,29.90,SSE,158,7.8,8.1,75,0.00,CLR,BKN,0.01,WeatherDisplay:10.37,2013-05-04 21:58:00,
2013-05-04 17:03:00,65.5,57.3,29.90,SW,225,7.4,8.1,75,0.00,CLR,BKN,0.01,WeatherDisplay:10.37,2013-05-04 22:03:00,
2013-05-04 17:08:00,65.5,57.3,29.91,WSW,248,8.5,11.5,75,0.00,CLR,BKN,0.01,WeatherDisplay:10.37,2013-05-04 22:08:00,
2013-05-04 17:13:00,65.3,57.2,29.91,SW,225,12.1,12.1,75,0.00,CLR,BKN,0.01,WeatherDisplay:10.37,2013-05-04 22:13:00,
2013-05-04 17:18:00,65.1,57.4,29.91,South,180,8.5,10.4,76,0.00,CLR,BKN,0.01,WeatherDisplay:10.37,2013-05-04 22:18:00,
2013-05-04 17:23:00,64.9,57.6,29.92,South,180,7.1,9.2,77,0.00,CLR,BKN,0.01,WeatherDisplay:10.37,2013-05-04 22:23:00,
2013-05-04 17:28:00,64.8,56.6,29.92,South,180,11.2,13.8,75,0.00,CLR,BKN,0.01,WeatherDisplay:10.37,2013-05-04 22:28:00,
2013-05-04 17:33:00,64.4,56.7,29.92,SSW,202,12.1,12.1,76,0.00,CLR,BKN,0.01,WeatherDisplay:10.37,2013-05-04 22:33:00,
2013-05-04 17:38:00,64.0,56.7,29.92,SSW,202,12.3,12.3,77,0.00,CLR,BKN,0.01,WeatherDisplay:10.37,2013-05-04 22:38:00,
2013-05-04 17:43:00,63.7,56.3,29.92,SW,225,7.4,10.4,77,0.00,CLR,BKN,0.01,WeatherDisplay:10.37,2013-05-04 22:43:00,
2013-05-04 17:48:00,63.5,56.2,29.92,South,180,10.9,11.5,77,0.00,CLR,BKN,0.01,WeatherDisplay:10.37,2013-05-04 22:48:00,
2013-05-04 17:53:00,63.5,56.2,29.93,SSW,202,6.7,8.1,77,0.00,CLR,BKN,0.01,WeatherDisplay:10.37,2013-05-04 22:53:00,
2013-05-04 17:58:00,63.5,56.2,29.93,SSW,202,5.9,8.1,77,0.00,CLR,BKN,0.01,WeatherDisplay:10.37,2013-05-04 22:58:00,
2013-05-04 18:03:00,63.7,56.3,29.93,SW,225,5.9,5.9,77,0.00,CLR,BKN,0.01,WeatherDisplay:10.37,2013-05-04 23:03:00,
2013-05-04 18:08:00,63.7,56.7,29.93,SSW,202,6.2,6.2,78,0.00,CLR,BKN,0.01,WeatherDisplay:10.37,2013-05-04 23:08:00,
2013-05-04 18:13:00,63.7,56.3,29.93,SW,225,7.8,8.1,77,0.00,CLR,BKN,0.01,WeatherDisplay:10.37,2013-05-04 23:13:00,
2013-05-04 18:18:00,63.7,56.3,29.93,SW,225,6.2,6.9,77,0.00,CLR,BKN,0.01,WeatherDisplay:10.37,2013-05-04 23:18:00,
2013-05-04 18:23:00,63.5,56.2,29.93,SW,225,6.2,6.2,77,0.00,CLR,BKN,0.01,WeatherDisplay:10.37,2013-05-04 23:23:00,
2013-05-04 18:28:00,63.5,56.2,29.93,WNW,292,4.3,8.1,77,0.00,CLR,BKN,0.01,WeatherDisplay:10.37,2013-05-04 23:28:00,
2013-05-04 18:33:00,63.3,55.6,29.93,SW,225,5.4,5.4,76,0.00,CLR,BKN,0.01,WeatherDisplay:10.37,2013-05-04 23:33:00,
2013-05-04 18:38:00,63.3,55.6,29.93,SW,225,4.7,4.7,76,0.00,CLR,BKN,0.01,WeatherDisplay:10.37,2013-05-04 23:38:00,
2013-05-04 18:43:00,63.1,55.4,29.93,SSW,202,4.3,4.6,76,0.00,CLR,BKN,0.01,WeatherDisplay:10.37,2013-05-04 23:43:00,
2013-05-04 18:48:00,63.0,55.3,29.93,SSW,202,6.4,6.4,76,0.00,CLR,BKN,0.01,WeatherDisplay:10.37,2013-05-04 23:48:00,
2013-05-04 18:53:00,63.0,55.3,29.94,SSW,202,6.2,8.1,76,0.00,CLR,BKN,0.01,WeatherDisplay:10.37,2013-05-04 23:53:00,
2013-05-04 18:58:00,62.8,55.1,29.94,South,180,5.4,6.9,76,0.00,CLR,BKN,0.01,WeatherDisplay:10.37,2013-05-04 23:58:00,
2013-05-04 19:03:00,62.6,54.9,29.94,South,180,6.0,8.1,76,0.00,CLR,BKN,0.01,WeatherDisplay:10.37,2013-05-05 00:03:00,
2013-05-04 19:08:00,62.4,54.8,29.94,SSE,158,5.6,5.8,76,0.00,CLR,BKN,0.01,WeatherDisplay:10.37,2013-05-05 00:08:00,
2013-05-04 19:13:00,62.2,54.9,29.94,SSW,202,7.8,9.2,77,0.00,CLR,BKN,0.01,WeatherDisplay:10.37,2013-05-05 00:13:00,
2013-05-04 19:18:00,62.1,54.8,29.94,SSW,202,4.7,6.9,77,0.00,CLR,BKN,0.01,WeatherDisplay:10.37,2013-05-05 00:18:00,
2013-05-04 19:23:00,62.1,54.8,29.94,SSW,202,5.4,5.8,77,0.00,CLR,BKN,0.01,WeatherDisplay:10.37,2013-05-05 00:23:00,
2013-05-04 19:28:00,62.1,55.1,29.95,SSW,202,4.3,4.6,78,0.00,CLR,BKN,0.01,WeatherDisplay:10.37,2013-05-05 00:28:00,
2013-05-04 19:33:00,61.9,54.9,29.95,SW,225,3.3,4.6,78,0.00,CLR,BKN,0.01,WeatherDisplay:10.37,2013-05-05 00:33:00,
2013-05-04 19:38:00,61.9,54.9,29.95,SSW,202,4.3,4.6,78,0.00,CLR,BKN,0.01,WeatherDisplay:10.37,2013-05-05 00:38:00,
2013-05-04 19:43:00,61.9,54.9,29.95,SW,225,3.6,3.6,78,0.00,CLR,BKN,0.01,WeatherDisplay:10.37,2013-05-05 00:43:00,
2013-05-04 19:48:00,61.7,54.8,29.96,SW,225,3.3,3.5,78,0.00,CLR,BKN,0.01,WeatherDisplay:10.37,2013-05-05 00:48:00,
2013-05-04 19:53:00,61.5,54.6,29.96,SW,225,3.3,3.3,78,0.00,CLR,BKN,0.01,WeatherDisplay:10.37,2013-05-05 00:53:00,
2013-05-04 19:58:00,61.5,54.6,29.96,SW,225,2.4,2.4,78,0.00,CLR,BKN,0.01,WeatherDisplay:10.37,2013-05-05 00:58:00,
2013-05-04 20:03:00,61.5,54.9,29.96,WSW,248,2.6,3.5,79,0.00,CLR,BKN,0.01,WeatherDisplay:10.37,2013-05-05 01:03:00,
2013-05-04 20:08:00,61.3,54.8,29.96,WSW,248,0.5,1.1,79,0.00,CLR,BKN,0.01,WeatherDisplay:10.37,2013-05-05 01:08:00,
2013-05-04 20:13:00,61.5,54.6,29.97,SW,225,0.0,0.0,78,0.00,CLR,BKN,0.01,WeatherDisplay:10.37,2013-05-05 01:13:00,
2013-05-04 20:18:00,61.3,54.4,29.97,South,180,0.9,1.1,78,0.00,CLR,BKN,0.01,WeatherDisplay:10.37,2013-05-05 01:18:00,
2013-05-04 20:23:00,61.3,54.4,29.97,SW,225,0.0,0.0,78,0.00,CLR,BKN,0.01,WeatherDisplay:10.37,2013-05-05 01:23:00,
2013-05-04 20:28:00,61.2,54.2,29.97,WSW,248,0.0,0.0,78,0.00,CLR,BKN,0.01,WeatherDisplay:10.37,2013-05-05 01:28:00,
2013-05-04 20:33:00,61.2,54.2,29.97,SSW,202,0.0,0.0,78,0.00,CLR,BKN,0.01,WeatherDisplay:10.37,2013-05-05 01:33:00,
2013-05-04 20:38:00,61.2,54.2,29.97,SSE,158,0.0,0.0,78,0.00,CLR,BKN,0.01,WeatherDisplay:10.37,2013-05-05 01:38:00,
2013-05-04 20:43:00,61.0,54.4,29.98,SW,225,0.0,0.0,79,0.00,CLR,BKN,0.01,WeatherDisplay:10.37,2013-05-05 01:43:00,
2013-05-04 20:48:00,60.8,54.2,29.98,WSW,248,1.1,1.1,79,0.00,CLR,BKN,0.01,WeatherDisplay:10.37,2013-05-05 01:48:00,
2013-05-04 20:53:00,60.8,54.2,29.97,SW,225,0.0,0.0,79,0.00,CLR,BKN,0.01,WeatherDisplay:10.37,2013-05-05 01:53:00,
2013-05-04 20:58:00,60.8,54.2,29.98,WSW,248,0.0,0.0,79,0.00,CLR,BKN,0.01,WeatherDisplay:10.37,2013-05-05 01:58:00,
2013-05-04 21:03:00,60.8,54.2,29.98,NE,45,0.0,0.0,79,0.00,CLR,BKN,0.01,WeatherDisplay:10.37,2013-05-05 02:03:00,
2013-05-04 21:08:00,60.6,53.7,29.98,NE,45,0.0,0.0,78,0.00,CLR,BKN,0.01,WeatherDisplay:10.37,2013-05-05 02:08:00,
2013-05-04 21:13:00,60.4,53.9,29.98,NNE,22,0.0,0.0,79,0.00,CLR,BKN,0.01,WeatherDisplay:10.37,2013-05-05 02:13:00,
2013-05-04 21:18:00,60.3,53.7,29.98,NNE,22,0.0,0.0,79,0.00,CLR,BKN,0.01,WeatherDisplay:10.37,2013-05-05 02:18:00,
2013-05-04 21:23:00,60.1,53.5,29.98,NNE,22,0.0,0.0,79,0.00,CLR,BKN,0.01,WeatherDisplay:10.37,2013-05-05 02:23:00,
2013-05-04 21:28:00,60.1,53.5,29.98,NNE,22,0.0,0.0,79,0.00,CLR,BKN,0.01,WeatherDisplay:10.37,2013-05-05 02:28:00,
2013-05-04 21:33:00,60.1,53.5,29.98,NNE,22,0.0,0.0,79,0.00,CLR,BKN,0.01,WeatherDisplay:10.37,2013-05-05 02:33:00,
2013-05-04 21:38:00,59.9,53.4,29.98,NNE,22,0.0,0.0,79,0.00,CLR,BKN,0.01,WeatherDisplay:10.37,2013-05-05 02:38:00,
2013-05-04 21:43:00,59.7,53.2,29.98,NNW,338,0.0,0.0,79,0.00,CLR,BKN,0.01,WeatherDisplay:10.37,2013-05-05 02:43:00,
2013-05-04 21:48:00,59.7,53.2,29.98,NNW,338,0.9,1.1,79,0.00,CLR,BKN,0.01,WeatherDisplay:10.37,2013-05-05 02:48:00,
2013-05-04 21:53:00,59.5,53.0,29.99,North,0,0.0,0.0,79,0.00,CLR,BKN,0.01,WeatherDisplay:10.37,2013-05-05 02:53:00,
2013-05-04 21:58:00,59.4,52.8,29.99,North,0,0.0,0.0,79,0.00,CLR,BKN,0.01,WeatherDisplay:10.37,2013-05-05 02:58:00,
2013-05-04 22:03:00,59.4,52.8,29.98,NNW,338,0.0,0.0,79,0.00,CLR,BKN,0.01,WeatherDisplay:10.37,2013-05-05 03:03:00,
2013-05-04 22:08:00,59.2,53.0,29.99,NW,315,0.9,1.1,80,0.00,CLR,BKN,0.01,WeatherDisplay:10.37,2013-05-05 03:08:00,
2013-05-04 22:13:00,59.2,53.0,29.99,NW,315,0.0,0.0,80,0.00,CLR,BKN,0.01,WeatherDisplay:10.37,2013-05-05 03:13:00,
2013-05-04 22:18:00,58.6,52.5,29.99,West,270,0.0,0.0,80,0.00,CLR,BKN,0.01,WeatherDisplay:10.37,2013-05-05 03:18:00,
2013-05-04 22:23:00,58.3,52.5,29.99,WSW,248,1.1,1.1,81,0.00,CLR,BKN,0.01,WeatherDisplay:10.37,2013-05-05 03:23:00,
2013-05-04 22:28:00,57.9,52.1,29.99,West,270,0.0,0.0,81,0.00,CLR,BKN,0.01,WeatherDisplay:10.37,2013-05-05 03:28:00,
2013-05-04 22:33:00,57.7,51.9,29.99,North,0,0.0,0.0,81,0.00,CLR,BKN,0.01,WeatherDisplay:10.37,2013-05-05 03:33:00,
2013-05-04 22:38:00,57.6,51.8,29.99,NNE,22,0.0,1.1,81,0.00,CLR,BKN,0.01,WeatherDisplay:10.37,2013-05-05 03:38:00,
2013-05-04 22:43:00,57.6,51.8,29.99,NE,45,0.0,0.0,81,0.00,CLR,BKN,0.01,WeatherDisplay:10.37,2013-05-05 03:43:00,
2013-05-04 22:48:00,57.2,51.8,29.99,NE,45,1.1,1.1,82,0.00,CLR,BKN,0.01,WeatherDisplay:10.37,2013-05-05 03:48:00,
2013-05-04 22:54:00,56.7,51.6,29.99,NE,45,2.0,2.3,83,0.00,CLR,BKN,0.01,WeatherDisplay:10.37,2013-05-05 03:54:00,
2013-05-04 22:59:00,56.5,51.1,29.99,NE,45,0.5,1.1,82,0.00,CLR,BKN,0.01,WeatherDisplay:10.37,2013-05-05 03:59:00,
2013-05-04 23:01:00,56.5,51.1,29.99,NE,45,1.1,1.1,82,0.00,CLR,BKN,0.01,WeatherDisplay:10.37,2013-05-05 04:01:00,
2013-05-04 23:06:00,56.3,50.9,29.99,NE,45,1.1,2.3,82,0.00,CLR,BKN,0.01,WeatherDisplay:10.37,2013-05-05 04:06:00,
2013-05-04 23:11:00,56.1,51.0,29.99,NE,45,1.1,1.1,83,0.00,CLR,BKN,0.01,WeatherDisplay:10.37,2013-05-05 04:11:00,
2013-05-04 23:16:00,55.8,50.7,29.99,NE,45,0.5,1.1,83,0.00,CLR,BKN,0.01,WeatherDisplay:10.37,2013-05-05 04:16:00,
2013-05-04 23:21:00,55.8,50.7,29.99,NE,45,2.0,2.3,83,0.00,CLR,BKN,0.01,WeatherDisplay:10.37,2013-05-05 04:21:00,
2013-05-04 23:26:00,55.9,50.9,29.99,NE,45,0.2,1.1,83,0.00,CLR,BKN,0.01,WeatherDisplay:10.37,2013-05-05 04:26:00,
2013-05-04 23:31:00,55.9,50.9,29.99,NNE,22,1.6,2.3,83,0.00,CLR,BKN,0.01,WeatherDisplay:10.37,2013-05-05 04:31:00,
2013-05-04 23:36:00,55.9,50.9,29.99,NE,45,0.5,1.1,83,0.00,CLR,BKN,0.01,WeatherDisplay:10.37,2013-05-05 04:36:00,
2013-05-04 23:41:00,56.1,51.0,29.99,NNE,22,2.2,2.3,83,0.00,CLR,BKN,0.01,WeatherDisplay:10.37,2013-05-05 04:41:00,
2013-05-04 23:46:00,55.9,50.9,29.99,North,0,0.0,0.0,83,0.00,CLR,BKN,0.01,WeatherDisplay:10.37,2013-05-05 04:46:00,
2013-05-04 23:51:00,55.9,50.9,29.98,NNE,22,0.5,1.1,83,0.00,CLR,BKN,0.01,WeatherDisplay:10.37,2013-05-05 04:51:00,
2013-05-04 23:56:00,55.8,51.0,29.98,NNE,22,2.2,3.5,84,0.00,CLR,BKN,0.01,WeatherDisplay:10.37,2013-05-05 04:56:00,